sensor_id;sensor_type;location;lat;lon;timestamp;pressure;altitude;pressure_sealevel;temperature;humidity
78745;BME280;68064;53.100;8.824;2023-07-29T00:00:43;100759.19;;;18.83;71.19
78745;BME280;68064;53.100;8.824;2023-07-29T00:01:44;100759.19;;;18.81;71.19
78745;BME280;68064;53.100;8.824;2023-07-29T00:02:45;100759.19;;;18.80;71.06
78745;BME280;68064;53.100;8.824;2023-07-29T00:03:46;100751.38;;;18.80;71.08
78745;BME280;68064;53.100;8.824;2023-07-29T00:04:47;100754.00;;;18.78;71.14
78745;BME280;68064;53.100;8.824;2023-07-29T00:05:49;100747.06;;;18.77;70.90
78745;BME280;68064;53.100;8.824;2023-07-29T00:06:50;100746.19;;;18.75;71.00
78745;BME280;68064;53.100;8.824;2023-07-29T00:07:51;100744.44;;;18.74;71.06
78745;BME280;68064;53.100;8.824;2023-07-29T00:08:52;100735.78;;;18.72;70.80
78745;BME280;68064;53.100;8.824;2023-07-29T00:09:53;100739.25;;;18.73;70.77
78745;BME280;68064;53.100;8.824;2023-07-29T00:10:54;100737.47;;;18.70;71.17
78745;BME280;68064;53.100;8.824;2023-07-29T00:11:55;100737.47;;;18.70;71.08
78745;BME280;68064;53.100;8.824;2023-07-29T00:12:57;100734.03;;;18.70;71.04
78745;BME280;68064;53.100;8.824;2023-07-29T00:13:58;100738.34;;;18.69;70.89
78745;BME280;68064;53.100;8.824;2023-07-29T00:14:59;100736.63;;;18.70;70.74
78745;BME280;68064;53.100;8.824;2023-07-29T00:16:00;100728.84;;;18.70;70.92
78745;BME280;68064;53.100;8.824;2023-07-29T00:17:01;100729.72;;;18.72;70.91
78745;BME280;68064;53.100;8.824;2023-07-29T00:18:02;100727.97;;;18.71;70.91
78745;BME280;68064;53.100;8.824;2023-07-29T00:19:03;100724.50;;;18.69;70.92
78745;BME280;68064;53.100;8.824;2023-07-29T00:20:05;100721.91;;;18.67;70.74
78745;BME280;68064;53.100;8.824;2023-07-29T00:21:06;100727.94;;;18.65;70.68
78745;BME280;68064;53.100;8.824;2023-07-29T00:22:07;100725.34;;;18.63;70.58
78745;BME280;68064;53.100;8.824;2023-07-29T00:23:08;100726.16;;;18.61;70.51
78745;BME280;68064;53.100;8.824;2023-07-29T00:24:09;100726.16;;;18.61;70.80
78745;BME280;68064;53.100;8.824;2023-07-29T00:25:10;100720.09;;;18.59;70.55
78745;BME280;68064;53.100;8.824;2023-07-29T00:26:11;100733.91;;;18.58;70.72
78745;BME280;68064;53.100;8.824;2023-07-29T00:27:12;100726.97;;;18.55;70.70
78745;BME280;68064;53.100;8.824;2023-07-29T00:28:15;100734.75;;;18.54;70.83
78745;BME280;68064;53.100;8.824;2023-07-29T00:29:16;100728.69;;;18.52;70.69
78745;BME280;68064;53.100;8.824;2023-07-29T00:30:17;100728.63;;;18.48;70.53
78745;BME280;68064;53.100;8.824;2023-07-29T00:31:18;100729.47;;;18.47;70.80
78745;BME280;68064;53.100;8.824;2023-07-29T00:32:19;100729.47;;;18.46;70.62
78745;BME280;68064;53.100;8.824;2023-07-29T00:33:20;100729.44;;;18.44;70.71
78745;BME280;68064;53.100;8.824;2023-07-29T00:34:21;100733.75;;;18.41;71.23
78745;BME280;68064;53.100;8.824;2023-07-29T00:35:22;100731.97;;;18.37;71.35
78745;BME280;68064;53.100;8.824;2023-07-29T00:36:23;100725.88;;;18.35;70.75
78745;BME280;68064;53.100;8.824;2023-07-29T00:37:24;100730.22;;;18.34;70.86
78745;BME280;68064;53.100;8.824;2023-07-29T00:38:25;100721.56;;;18.35;70.80
78745;BME280;68064;53.100;8.824;2023-07-29T00:39:26;100725.88;;;18.35;70.86
78745;BME280;68064;53.100;8.824;2023-07-29T00:40:28;100725.88;;;18.35;71.02
78745;BME280;68064;53.100;8.824;2023-07-29T00:41:30;100720.72;;;18.33;70.83
78745;BME280;68064;53.100;8.824;2023-07-29T00:42:30;100719.84;;;18.33;70.84
78745;BME280;68064;53.100;8.824;2023-07-29T00:43:33;100724.13;;;18.32;71.06
78745;BME280;68064;53.100;8.824;2023-07-29T00:44:34;100720.69;;;18.30;72.29
78745;BME280;68064;53.100;8.824;2023-07-29T00:45:35;100723.25;;;18.29;71.62
78745;BME280;68064;53.100;8.824;2023-07-29T00:46:38;100723.28;;;18.30;71.33
78745;BME280;68064;53.100;8.824;2023-07-29T00:47:41;100728.44;;;18.30;71.14
78745;BME280;68064;53.100;8.824;2023-07-29T00:48:43;100727.53;;;18.28;71.21
78745;BME280;68064;53.100;8.824;2023-07-29T00:49:44;100732.72;;;18.28;71.08
78745;BME280;68064;53.100;8.824;2023-07-29T00:50:45;100727.59;;;18.31;71.18
78745;BME280;68064;53.100;8.824;2023-07-29T00:51:46;100725.88;;;18.33;71.26
78745;BME280;68064;53.100;8.824;2023-07-29T00:52:48;100727.59;;;18.33;71.17
78745;BME280;68064;53.100;8.824;2023-07-29T00:53:50;100722.44;;;18.34;71.15
78745;BME280;68064;53.100;8.824;2023-07-29T00:54:50;100720.72;;;18.33;71.12
78745;BME280;68064;53.100;8.824;2023-07-29T00:55:51;100726.75;;;18.34;71.21
78745;BME280;68064;53.100;8.824;2023-07-29T00:56:52;100731.09;;;18.36;71.16
78745;BME280;68064;53.100;8.824;2023-07-29T00:57:53;100725.91;;;18.36;71.14
78745;BME280;68064;53.100;8.824;2023-07-29T00:58:56;100730.25;;;18.37;71.29
78745;BME280;68064;53.100;8.824;2023-07-29T00:59:57;100734.56;;;18.38;71.56
78745;BME280;68064;53.100;8.824;2023-07-29T01:00:58;100735.47;;;18.40;71.48
78745;BME280;68064;53.100;8.824;2023-07-29T01:01:59;100729.38;;;18.37;71.17
78745;BME280;68064;53.100;8.824;2023-07-29T01:03:00;100725.03;;;18.36;71.06
78745;BME280;68064;53.100;8.824;2023-07-29T01:04:02;100725.88;;;18.35;71.09
78745;BME280;68064;53.100;8.824;2023-07-29T01:05:03;100721.53;;;18.32;71.21
78745;BME280;68064;53.100;8.824;2023-07-29T01:06:10;100722.44;;;18.31;71.11
78745;BME280;68064;53.100;8.824;2023-07-29T01:07:17;100725.84;;;18.32;71.15
78745;BME280;68064;53.100;8.824;2023-07-29T01:08:28;100725.00;;;18.30;71.09
78745;BME280;68064;53.100;8.824;2023-07-29T01:09:43;100721.53;;;18.28;71.21
78745;BME280;68064;53.100;8.824;2023-07-29T01:10:55;100731.00;;;18.27;71.12
78745;BME280;68064;53.100;8.824;2023-07-29T01:12:06;100730.13;;;18.28;71.27
78745;BME280;68064;53.100;8.824;2023-07-29T01:13:15;100729.28;;;18.29;71.01
78745;BME280;68064;53.100;8.824;2023-07-29T01:14:25;100723.25;;;18.27;70.91
78745;BME280;68064;53.100;8.824;2023-07-29T01:15:36;100724.94;;;18.25;71.35
78745;BME280;68064;53.100;8.824;2023-07-29T01:16:42;100725.81;;;18.26;70.99
78745;BME280;68064;53.100;8.824;2023-07-29T01:17:48;100730.13;;;18.27;71.04
78745;BME280;68064;53.100;8.824;2023-07-29T01:18:52;100725.81;;;18.26;71.00
78745;BME280;68064;53.100;8.824;2023-07-29T01:20:01;100725.84;;;18.27;71.17
78745;BME280;68064;53.100;8.824;2023-07-29T01:21:03;100727.53;;;18.25;71.33
78745;BME280;68064;53.100;8.824;2023-07-29T01:22:07;100732.69;;;18.24;70.96
78745;BME280;68064;53.100;8.824;2023-07-29T01:23:09;100735.28;;;18.25;71.30
78745;BME280;68064;53.100;8.824;2023-07-29T01:24:13;100731.00;;;18.24;77.79
78745;BME280;68064;53.100;8.824;2023-07-29T01:25:14;100730.97;;;18.21;72.98
78745;BME280;68064;53.100;8.824;2023-07-29T01:26:17;100731.78;;;18.20;71.77
78745;BME280;68064;53.100;8.824;2023-07-29T01:27:20;100724.91;;;18.21;71.84
78745;BME280;68064;53.100;8.824;2023-07-29T01:28:23;100721.47;;;18.22;71.77
78745;BME280;68064;53.100;8.824;2023-07-29T01:29:25;100726.59;;;18.19;71.87
78745;BME280;68064;53.100;8.824;2023-07-29T01:30:28;100733.47;;;18.17;74.77
78745;BME280;68064;53.100;8.824;2023-07-29T01:31:34;100726.53;;;18.13;72.10
78745;BME280;68064;53.100;8.824;2023-07-29T01:32:46;100732.56;;;18.13;72.16
78745;BME280;68064;53.100;8.824;2023-07-29T01:33:56;100734.28;;;18.13;72.07
78745;BME280;68064;53.100;8.824;2023-07-29T01:35:03;100722.22;;;18.12;71.40
78745;BME280;68064;53.100;8.824;2023-07-29T01:36:08;100722.19;;;18.10;71.37
78745;BME280;68064;53.100;8.824;2023-07-29T01:37:16;100725.69;;;18.12;71.68
78745;BME280;68064;53.100;8.824;2023-07-29T01:38:27;100721.34;;;18.11;71.44
78745;BME280;68064;53.100;8.824;2023-07-29T01:39:33;100723.94;;;18.11;72.37
78745;BME280;68064;53.100;8.824;2023-07-29T01:40:37;100721.28;;;18.07;71.58
78745;BME280;68064;53.100;8.824;2023-07-29T01:41:39;100713.50;;;18.07;71.76
78745;BME280;68064;53.100;8.824;2023-07-29T01:42:42;100711.78;;;18.07;72.18
78745;BME280;68064;53.100;8.824;2023-07-29T01:43:45;100705.69;;;18.04;71.64
78745;BME280;68064;53.100;8.824;2023-07-29T01:44:49;100707.41;;;18.02;72.15
78745;BME280;68064;53.100;8.824;2023-07-29T01:45:51;100705.69;;;18.01;71.71
78745;BME280;68064;53.100;8.824;2023-07-29T01:46:55;100710.84;;;17.99;71.87
78745;BME280;68064;53.100;8.824;2023-07-29T01:47:57;100709.16;;;18.03;71.86
78745;BME280;68064;53.100;8.824;2023-07-29T01:48:59;100711.75;;;18.03;72.12
78745;BME280;68064;53.100;8.824;2023-07-29T01:50:01;100704.81;;;18.00;71.68
78745;BME280;68064;53.100;8.824;2023-07-29T01:51:04;100706.53;;;17.98;71.59
78745;BME280;68064;53.100;8.824;2023-07-29T01:52:06;100705.66;;;17.97;79.57
78745;BME280;68064;53.100;8.824;2023-07-29T01:53:07;100702.22;;;17.98;83.97
78745;BME280;68064;53.100;8.824;2023-07-29T01:54:09;100700.38;;;17.88;77.48
78745;BME280;68064;53.100;8.824;2023-07-29T01:55:14;100696.03;;;17.86;74.79
78745;BME280;68064;53.100;8.824;2023-07-29T01:56:15;100698.59;;;17.84;73.88
78745;BME280;68064;53.100;8.824;2023-07-29T01:57:18;100696.00;;;17.83;73.35
78745;BME280;68064;53.100;8.824;2023-07-29T01:58:20;100696.00;;;17.83;73.10
78745;BME280;68064;53.100;8.824;2023-07-29T01:59:23;100702.88;;;17.82;72.73
78745;BME280;68064;53.100;8.824;2023-07-29T02:00:25;100710.66;;;17.82;72.95
78745;BME280;68064;53.100;8.824;2023-07-29T02:01:27;100713.22;;;17.81;72.42
78745;BME280;68064;53.100;8.824;2023-07-29T02:02:29;100704.56;;;17.79;72.38
78745;BME280;68064;53.100;8.824;2023-07-29T02:03:30;100712.38;;;17.80;72.25
78745;BME280;68064;53.100;8.824;2023-07-29T02:04:31;100702.81;;;17.76;72.28
78745;BME280;68064;53.100;8.824;2023-07-29T02:05:32;100708.88;;;17.77;74.63
78745;BME280;68064;53.100;8.824;2023-07-29T02:06:33;100707.09;;;17.74;73.54
78745;BME280;68064;53.100;8.824;2023-07-29T02:07:34;100707.09;;;17.73;74.15
78745;BME280;68064;53.100;8.824;2023-07-29T02:08:35;100709.69;;;17.73;72.93
78745;BME280;68064;53.100;8.824;2023-07-29T02:09:36;100711.47;;;17.78;74.97
78745;BME280;68064;53.100;8.824;2023-07-29T02:10:39;100701.91;;;17.74;76.70
78745;BME280;68064;53.100;8.824;2023-07-29T02:11:40;100702.75;;;17.72;74.77
78745;BME280;68064;53.100;8.824;2023-07-29T02:12:41;100703.69;;;17.77;83.70
78745;BME280;68064;53.100;8.824;2023-07-29T02:13:42;100707.91;;;17.69;77.34
78745;BME280;68064;53.100;8.824;2023-07-29T02:14:44;100699.25;;;17.67;74.74
78745;BME280;68064;53.100;8.824;2023-07-29T02:15:44;100703.53;;;17.65;74.08
78745;BME280;68064;53.100;8.824;2023-07-29T02:16:46;100705.28;;;17.66;73.66
78745;BME280;68064;53.100;8.824;2023-07-29T02:17:50;100698.34;;;17.65;73.57
78745;BME280;68064;53.100;8.824;2023-07-29T02:18:51;100703.53;;;17.65;73.30
78745;BME280;68064;53.100;8.824;2023-07-29T02:19:53;100693.16;;;17.63;74.31
78745;BME280;68064;53.100;8.824;2023-07-29T02:20:55;100701.78;;;17.61;73.23
78745;BME280;68064;53.100;8.824;2023-07-29T02:21:56;100692.28;;;17.63;79.13
78745;BME280;68064;53.100;8.824;2023-07-29T02:22:58;100694.84;;;17.60;74.03
78745;BME280;68064;53.100;8.824;2023-07-29T02:23:59;100691.41;;;17.62;73.70
78745;BME280;68064;53.100;8.824;2023-07-29T02:25:00;100697.50;;;17.64;73.66
78745;BME280;68064;53.100;8.824;2023-07-29T02:26:02;100700.03;;;17.60;73.07
78745;BME280;68064;53.100;8.824;2023-07-29T02:27:04;100696.56;;;17.58;73.02
78745;BME280;68064;53.100;8.824;2023-07-29T02:28:05;100693.13;;;17.62;73.01
78745;BME280;68064;53.100;8.824;2023-07-29T02:29:06;100698.31;;;17.62;72.93
78745;BME280;68064;53.100;8.824;2023-07-29T02:30:07;100694.88;;;17.61;73.00
78745;BME280;68064;53.100;8.824;2023-07-29T02:31:15;100692.22;;;17.58;74.83
78745;BME280;68064;53.100;8.824;2023-07-29T02:32:16;100693.94;;;17.56;72.91
78745;BME280;68064;53.100;8.824;2023-07-29T02:33:17;100689.56;;;17.54;72.69
78745;BME280;68064;53.100;8.824;2023-07-29T02:34:19;100690.50;;;17.59;73.03
78745;BME280;68064;53.100;8.824;2023-07-29T02:35:20;100695.69;;;17.57;72.83
78745;BME280;68064;53.100;8.824;2023-07-29T02:36:24;100696.53;;;17.56;74.37
78745;BME280;68064;53.100;8.824;2023-07-29T02:37:30;100692.13;;;17.51;74.60
78745;BME280;68064;53.100;8.824;2023-07-29T02:38:32;100690.38;;;17.50;73.31
78745;BME280;68064;53.100;8.824;2023-07-29T02:39:36;100687.75;;;17.46;74.05
78745;BME280;68064;53.100;8.824;2023-07-29T02:40:38;100683.44;;;17.48;73.27
78745;BME280;68064;53.100;8.824;2023-07-29T02:41:44;100686.09;;;17.52;73.29
78745;BME280;68064;53.100;8.824;2023-07-29T02:42:45;100686.13;;;17.55;73.42
78745;BME280;68064;53.100;8.824;2023-07-29T02:43:48;100683.53;;;17.55;73.16
78745;BME280;68064;53.100;8.824;2023-07-29T02:44:51;100683.50;;;17.52;72.85
78745;BME280;68064;53.100;8.824;2023-07-29T02:45:52;100691.25;;;17.50;72.76
78745;BME280;68064;53.100;8.824;2023-07-29T02:46:54;100686.03;;;17.48;72.93
78745;BME280;68064;53.100;8.824;2023-07-29T02:47:55;100690.31;;;17.45;73.05
78745;BME280;68064;53.100;8.824;2023-07-29T02:48:56;100693.72;;;17.42;72.85
78745;BME280;68064;53.100;8.824;2023-07-29T02:49:57;100683.38;;;17.42;72.91
78745;BME280;68064;53.100;8.824;2023-07-29T02:50:58;100683.38;;;17.42;72.80
78745;BME280;68064;53.100;8.824;2023-07-29T02:51:59;100680.78;;;17.41;72.70
78745;BME280;68064;53.100;8.824;2023-07-29T02:53:00;100672.97;;;17.38;73.67
78745;BME280;68064;53.100;8.824;2023-07-29T02:54:01;100687.63;;;17.37;72.84
78745;BME280;68064;53.100;8.824;2023-07-29T02:55:03;100690.19;;;17.36;72.83
78745;BME280;68064;53.100;8.824;2023-07-29T02:56:04;100676.38;;;17.34;72.79
78745;BME280;68064;53.100;8.824;2023-07-29T02:57:07;100683.31;;;17.38;73.07
78745;BME280;68064;53.100;8.824;2023-07-29T02:58:08;100685.91;;;17.38;72.96
78745;BME280;68064;53.100;8.824;2023-07-29T02:59:11;100681.56;;;17.35;72.69
78745;BME280;68064;53.100;8.824;2023-07-29T03:00:13;100686.75;;;17.35;72.88
78745;BME280;68064;53.100;8.824;2023-07-29T03:01:15;100683.28;;;17.35;73.02
78745;BME280;68064;53.100;8.824;2023-07-29T03:02:16;100683.28;;;17.35;72.98
78745;BME280;68064;53.100;8.824;2023-07-29T03:03:17;100683.25;;;17.33;72.58
78745;BME280;68064;53.100;8.824;2023-07-29T03:04:18;100685.84;;;17.33;73.07
78745;BME280;68064;53.100;8.824;2023-07-29T03:05:19;100679.75;;;17.30;72.81
78745;BME280;68064;53.100;8.824;2023-07-29T03:06:20;100684.06;;;17.29;72.83
78745;BME280;68064;53.100;8.824;2023-07-29T03:07:21;100684.94;;;17.28;72.89
78745;BME280;68064;53.100;8.824;2023-07-29T03:08:22;100678.00;;;17.27;72.80
78745;BME280;68064;53.100;8.824;2023-07-29T03:09:23;100689.19;;;17.26;72.92
78745;BME280;68064;53.100;8.824;2023-07-29T03:10:24;100687.44;;;17.24;72.87
78745;BME280;68064;53.100;8.824;2023-07-29T03:11:25;100685.72;;;17.24;76.32
78745;BME280;68064;53.100;8.824;2023-07-29T03:12:28;100693.47;;;17.23;73.71
78745;BME280;68064;53.100;8.824;2023-07-29T03:13:29;100691.75;;;17.23;73.29
78745;BME280;68064;53.100;8.824;2023-07-29T03:14:30;100690.06;;;17.25;73.16
78745;BME280;68064;53.100;8.824;2023-07-29T03:15:31;100695.25;;;17.25;73.25
78745;BME280;68064;53.100;8.824;2023-07-29T03:16:33;100693.50;;;17.24;72.99
78745;BME280;68064;53.100;8.824;2023-07-29T03:17:34;100695.19;;;17.24;72.92
78745;BME280;68064;53.100;8.824;2023-07-29T03:18:37;100693.44;;;17.21;72.66
78745;BME280;68064;53.100;8.824;2023-07-29T03:19:38;100692.56;;;17.19;73.54
78745;BME280;68064;53.100;8.824;2023-07-29T03:20:39;100700.28;;;17.18;73.20
78745;BME280;68064;53.100;8.824;2023-07-29T03:21:40;100693.38;;;17.15;73.00
78745;BME280;68064;53.100;8.824;2023-07-29T03:22:41;100689.88;;;17.12;72.79
78745;BME280;68064;53.100;8.824;2023-07-29T03:23:42;100700.25;;;17.13;72.90
78745;BME280;68064;53.100;8.824;2023-07-29T03:24:43;100699.34;;;17.11;72.59
78745;BME280;68064;53.100;8.824;2023-07-29T03:25:43;100698.50;;;17.12;75.06
78745;BME280;68064;53.100;8.824;2023-07-29T03:26:45;100698.47;;;17.09;75.03
78745;BME280;68064;53.100;8.824;2023-07-29T03:27:47;100696.69;;;17.07;74.04
78745;BME280;68064;53.100;8.824;2023-07-29T03:28:48;100703.59;;;17.08;73.38
78745;BME280;68064;53.100;8.824;2023-07-29T03:29:50;100705.41;;;17.13;74.61
78745;BME280;68064;53.100;8.824;2023-07-29T03:30:51;100702.78;;;17.10;74.26
78745;BME280;68064;53.100;8.824;2023-07-29T03:31:52;100705.38;;;17.10;73.78
78745;BME280;68064;53.100;8.824;2023-07-29T03:32:53;100707.97;;;17.12;73.78
78745;BME280;68064;53.100;8.824;2023-07-29T03:33:53;100701.00;;;17.08;73.45
78745;BME280;68064;53.100;8.824;2023-07-29T03:34:55;100704.59;;;17.17;84.84
78745;BME280;68064;53.100;8.824;2023-07-29T03:35:56;100702.75;;;17.09;82.28
78745;BME280;68064;53.100;8.824;2023-07-29T03:36:57;100692.38;;;17.06;77.25
78745;BME280;68064;53.100;8.824;2023-07-29T03:37:58;100704.50;;;17.10;75.47
78745;BME280;68064;53.100;8.824;2023-07-29T03:38:59;100701.00;;;17.08;74.90
78745;BME280;68064;53.100;8.824;2023-07-29T03:40:00;100693.31;;;17.12;74.61
78745;BME280;68064;53.100;8.824;2023-07-29T03:41:01;100694.16;;;17.10;74.57
78745;BME280;68064;53.100;8.824;2023-07-29T03:42:02;100688.09;;;17.09;74.00
78745;BME280;68064;53.100;8.824;2023-07-29T03:43:05;100694.13;;;17.07;74.17
78745;BME280;68064;53.100;8.824;2023-07-29T03:44:06;100693.31;;;17.14;74.35
78745;BME280;68064;53.100;8.824;2023-07-29T03:45:09;100687.28;;;17.10;73.84
78745;BME280;68064;53.100;8.824;2023-07-29T03:46:10;100676.94;;;17.10;73.92
78745;BME280;68064;53.100;8.824;2023-07-29T03:47:11;100677.75;;;17.11;73.63
78745;BME280;68064;53.100;8.824;2023-07-29T03:48:12;100678.63;;;17.10;73.79
78745;BME280;68064;53.100;8.824;2023-07-29T03:49:13;100676.94;;;17.10;73.49
78745;BME280;68064;53.100;8.824;2023-07-29T03:50:14;100682.97;;;17.14;73.74
78745;BME280;68064;53.100;8.824;2023-07-29T03:51:15;100676.97;;;17.13;73.56
78745;BME280;68064;53.100;8.824;2023-07-29T03:52:16;100676.97;;;17.15;73.13
78745;BME280;68064;53.100;8.824;2023-07-29T03:53:17;100669.22;;;17.15;73.33
78745;BME280;68064;53.100;8.824;2023-07-29T03:54:18;100664.03;;;17.13;73.26
78745;BME280;68064;53.100;8.824;2023-07-29T03:55:19;100662.28;;;17.14;73.29
78745;BME280;68064;53.100;8.824;2023-07-29T03:56:20;100665.78;;;17.16;73.21
78745;BME280;68064;53.100;8.824;2023-07-29T03:57:21;100662.31;;;17.15;73.41
78745;BME280;68064;53.100;8.824;2023-07-29T03:58:24;100669.22;;;17.15;73.34
78745;BME280;68064;53.100;8.824;2023-07-29T03:59:25;100664.06;;;17.16;76.43
78745;BME280;68064;53.100;8.824;2023-07-29T04:00:26;100681.31;;;17.16;76.92
78745;BME280;68064;53.100;8.824;2023-07-29T04:01:27;100673.63;;;17.22;82.95
78745;BME280;68064;53.100;8.824;2023-07-29T04:02:28;100671.00;;;17.20;80.83
78745;BME280;68064;53.100;8.824;2023-07-29T04:03:29;100674.50;;;17.22;83.45
78745;BME280;68064;53.100;8.824;2023-07-29T04:04:30;100681.38;;;17.23;84.90
78745;BME280;68064;53.100;8.824;2023-07-29T04:05:31;100693.53;;;17.26;86.64
78745;BME280;68064;53.100;8.824;2023-07-29T04:06:33;100706.41;;;17.23;84.79
78745;BME280;68064;53.100;8.824;2023-07-29T04:07:34;100699.47;;;17.19;80.42
78745;BME280;68064;53.100;8.824;2023-07-29T04:08:35;100669.31;;;17.22;76.71
78745;BME280;68064;53.100;8.824;2023-07-29T04:09:37;100677.97;;;17.24;77.17
78745;BME280;68064;53.100;8.824;2023-07-29T04:10:41;100670.25;;;17.26;75.35
78745;BME280;68064;53.100;8.824;2023-07-29T04:11:46;100675.50;;;17.32;74.88
78745;BME280;68064;53.100;8.824;2023-07-29T04:12:48;100667.78;;;17.36;78.75
78745;BME280;68064;53.100;8.824;2023-07-29T04:13:52;100674.63;;;17.33;76.77
78745;BME280;68064;53.100;8.824;2023-07-29T04:14:53;100677.22;;;17.33;75.02
78745;BME280;68064;53.100;8.824;2023-07-29T04:15:56;100678.09;;;17.33;74.27
78745;BME280;68064;53.100;8.824;2023-07-29T04:17:01;100681.53;;;17.32;74.24
78745;BME280;68064;53.100;8.824;2023-07-29T04:18:04;100677.25;;;17.34;74.14
78745;BME280;68064;53.100;8.824;2023-07-29T04:19:10;100673.78;;;17.32;74.23
78745;BME280;68064;53.100;8.824;2023-07-29T04:20:12;100665.16;;;17.33;73.70
78745;BME280;68064;53.100;8.824;2023-07-29T04:21:18;100667.75;;;17.35;73.70
78745;BME280;68064;53.100;8.824;2023-07-29T04:22:21;100670.34;;;17.35;73.53
78745;BME280;68064;53.100;8.824;2023-07-29T04:23:22;100672.91;;;17.33;73.66
78745;BME280;68064;53.100;8.824;2023-07-29T04:24:24;100665.19;;;17.35;73.49
78745;BME280;68064;53.100;8.824;2023-07-29T04:25:26;100668.63;;;17.35;73.24
78745;BME280;68064;53.100;8.824;2023-07-29T04:26:27;100672.06;;;17.36;73.32
78745;BME280;68064;53.100;8.824;2023-07-29T04:27:29;100668.66;;;17.37;73.00
78745;BME280;68064;53.100;8.824;2023-07-29T04:28:30;100676.44;;;17.38;72.88
78745;BME280;68064;53.100;8.824;2023-07-29T04:29:33;100668.72;;;17.41;74.65
78745;BME280;68064;53.100;8.824;2023-07-29T04:30:35;100679.97;;;17.45;72.74
78745;BME280;68064;53.100;8.824;2023-07-29T04:31:36;100667.03;;;17.45;73.97
78745;BME280;68064;53.100;8.824;2023-07-29T04:32:37;100676.50;;;17.44;74.06
78745;BME280;68064;53.100;8.824;2023-07-29T04:33:38;100673.94;;;17.44;73.37
78745;BME280;68064;53.100;8.824;2023-07-29T04:34:39;100673.94;;;17.44;72.85
78745;BME280;68064;53.100;8.824;2023-07-29T04:35:40;100677.44;;;17.48;72.35
78745;BME280;68064;53.100;8.824;2023-07-29T04:36:41;100673.19;;;17.55;77.94
78745;BME280;68064;53.100;8.824;2023-07-29T04:37:42;100672.31;;;17.54;78.78
78745;BME280;68064;53.100;8.824;2023-07-29T04:38:43;100674.91;;;17.54;74.22
78745;BME280;68064;53.100;8.824;2023-07-29T04:39:44;100671.56;;;17.60;80.25
78745;BME280;68064;53.100;8.824;2023-07-29T04:40:45;100670.59;;;17.55;75.25
78745;BME280;68064;53.100;8.824;2023-07-29T04:41:46;100668.06;;;17.56;73.25
78745;BME280;68064;53.100;8.824;2023-07-29T04:42:47;100671.63;;;17.64;80.72
78745;BME280;68064;53.100;8.824;2023-07-29T04:43:48;100671.56;;;17.60;77.56
78745;BME280;68064;53.100;8.824;2023-07-29T04:44:51;100671.63;;;17.66;83.12
78745;BME280;68064;53.100;8.824;2023-07-29T04:45:52;100668.94;;;17.58;76.68
78745;BME280;68064;53.100;8.824;2023-07-29T04:46:53;100672.53;;;17.69;83.10
78745;BME280;68064;53.100;8.824;2023-07-29T04:47:54;100666.41;;;17.61;77.35
78745;BME280;68064;53.100;8.824;2023-07-29T04:48:55;100669.97;;;17.71;83.79
78745;BME280;68064;53.100;8.824;2023-07-29T04:49:56;100669.97;;;17.71;84.54
78745;BME280;68064;53.100;8.824;2023-07-29T04:50:57;100666.41;;;17.63;78.33
78745;BME280;68064;53.100;8.824;2023-07-29T04:51:58;100657.78;;;17.65;74.80
78745;BME280;68064;53.100;8.824;2023-07-29T04:52:59;100656.16;;;17.72;74.75
78745;BME280;68064;53.100;8.824;2023-07-29T04:54:00;100659.63;;;17.71;74.63
78745;BME280;68064;53.100;8.824;2023-07-29T04:55:01;100645.75;;;17.69;73.79
78745;BME280;68064;53.100;8.824;2023-07-29T04:56:02;100657.03;;;17.72;73.84
78745;BME280;68064;53.100;8.824;2023-07-29T04:57:03;100656.16;;;17.70;73.44
78745;BME280;68064;53.100;8.824;2023-07-29T04:58:04;100647.56;;;17.76;73.82
78745;BME280;68064;53.100;8.824;2023-07-29T04:59:06;100652.75;;;17.76;74.02
78745;BME280;68064;53.100;8.824;2023-07-29T05:00:08;100656.22;;;17.76;75.01
78745;BME280;68064;53.100;8.824;2023-07-29T05:01:10;100651.94;;;17.81;82.06
78745;BME280;68064;53.100;8.824;2023-07-29T05:02:11;100656.19;;;17.75;74.91
78745;BME280;68064;53.100;8.824;2023-07-29T05:03:12;100653.63;;;17.76;73.64
78745;BME280;68064;53.100;8.824;2023-07-29T05:04:12;100650.22;;;17.80;74.29
78745;BME280;68064;53.100;8.824;2023-07-29T05:05:14;100655.41;;;17.82;76.94
78745;BME280;68064;53.100;8.824;2023-07-29T05:06:15;100648.53;;;17.87;82.51
78745;BME280;68064;53.100;8.824;2023-07-29T05:07:16;100646.75;;;17.81;74.17
78745;BME280;68064;53.100;8.824;2023-07-29T05:08:17;100648.50;;;17.82;75.39
78745;BME280;68064;53.100;8.824;2023-07-29T05:09:19;100642.47;;;17.85;76.44
78745;BME280;68064;53.100;8.824;2023-07-29T05:10:20;100636.44;;;17.84;73.59
78745;BME280;68064;53.100;8.824;2023-07-29T05:11:21;100640.78;;;17.87;74.10
78745;BME280;68064;53.100;8.824;2023-07-29T05:12:31;100642.50;;;17.88;73.57
78745;BME280;68064;53.100;8.824;2023-07-29T05:13:35;100633.06;;;17.90;73.18
78745;BME280;68064;53.100;8.824;2023-07-29T05:14:36;100638.25;;;17.91;73.53
78745;BME280;68064;53.100;8.824;2023-07-29T05:15:38;100636.53;;;17.92;73.30
78745;BME280;68064;53.100;8.824;2023-07-29T05:16:39;100632.22;;;17.92;73.95
78745;BME280;68064;53.100;8.824;2023-07-29T05:17:40;100636.53;;;17.92;73.24
78745;BME280;68064;53.100;8.824;2023-07-29T05:18:42;100627.91;;;17.94;73.41
78745;BME280;68064;53.100;8.824;2023-07-29T05:19:43;100627.09;;;18.00;80.01
78745;BME280;68064;53.100;8.824;2023-07-29T05:20:44;100624.47;;;17.95;73.59
78745;BME280;68064;53.100;8.824;2023-07-29T05:21:45;100629.72;;;18.02;76.48
78745;BME280;68064;53.100;8.824;2023-07-29T05:22:46;100629.72;;;18.03;77.63
78745;BME280;68064;53.100;8.824;2023-07-29T05:23:47;100627.13;;;18.03;76.40
78745;BME280;68064;53.100;8.824;2023-07-29T05:24:48;100632.28;;;18.02;73.98